Map

Track Data

SID SEASON NUMBER BASIN SUBBASIN NAME ISO_TIME NATURE LAT LON WMO_WIND WMO_PRES WMO_AGENCY TRACK_TYPE DIST2LAND LANDFALL IFLAG USA_AGENCY USA_ATCF_ID USA_LAT USA_LON USA_RECORD USA_STATUS USA_WIND USA_PRES USA_SSHS USA_R34_NE USA_R34_SE USA_R34_SW USA_R34_NW USA_R50_NE USA_R50_SE USA_R50_SW USA_R50_NW USA_R64_NE USA_R64_SE USA_R64_SW USA_R64_NW USA_POCI USA_ROCI USA_RMW USA_EYE TOKYO_LAT TOKYO_LON TOKYO_GRADE TOKYO_WIND TOKYO_PRES TOKYO_R50_DIR TOKYO_R50_LONG TOKYO_R50_SHORT TOKYO_R30_DIR TOKYO_R30_LONG TOKYO_R30_SHORT TOKYO_LAND CMA_LAT CMA_LON CMA_CAT CMA_WIND CMA_PRES HKO_LAT HKO_LON HKO_CAT HKO_WIND HKO_PRES NEWDELHI_LAT NEWDELHI_LON NEWDELHI_GRADE NEWDELHI_WIND NEWDELHI_PRES NEWDELHI_CI NEWDELHI_DP NEWDELHI_POCI REUNION_LAT REUNION_LON REUNION_TYPE REUNION_WIND REUNION_PRES REUNION_TNUM REUNION_CI REUNION_RMW REUNION_R34_NE REUNION_R34_SE REUNION_R34_SW REUNION_R34_NW REUNION_R50_NE REUNION_R50_SE REUNION_R50_SW REUNION_R50_NW REUNION_R64_NE REUNION_R64_SE REUNION_R64_SW REUNION_R64_NW BOM_LAT BOM_LON BOM_TYPE BOM_WIND BOM_PRES BOM_TNUM BOM_CI BOM_RMW BOM_R34_NE BOM_R34_SE BOM_R34_SW BOM_R34_NW BOM_R50_NE BOM_R50_SE BOM_R50_SW BOM_R50_NW BOM_R64_NE BOM_R64_SE BOM_R64_SW BOM_R64_NW BOM_ROCI BOM_POCI BOM_EYE BOM_POS_METHOD BOM_PRES_METHOD NADI_LAT NADI_LON NADI_CAT NADI_WIND NADI_PRES WELLINGTON_LAT WELLINGTON_LON WELLINGTON_WIND WELLINGTON_PRES DS824_LAT DS824_LON DS824_STAGE DS824_WIND DS824_PRES TD9636_LAT TD9636_LON TD9636_STAGE TD9636_WIND TD9636_PRES TD9635_LAT TD9635_LON TD9635_WIND TD9635_PRES TD9635_ROCI NEUMANN_LAT NEUMANN_LON NEUMANN_CLASS NEUMANN_WIND NEUMANN_PRES MLC_LAT MLC_LON MLC_CLASS MLC_WIND MLC_PRES USA_GUST BOM_GUST BOM_GUST_PER REUNION_GUST REUNION_GUST_PER USA_SEAHGT USA_SEARAD_NE USA_SEARAD_SE USA_SEARAD_SW USA_SEARAD_NW STORM_SPEED STORM_DIR
1932242N16130 1932 44 WP MM NOT_NAMED 1932-08-28 21:00:00 NR 16.4000 129.700 main 634 596 __________O___ -1 16.4000 129.700 4 18 305
1932242N16130 1932 44 WP MM NOT_NAMED 1932-08-29 00:00:00 NR 16.9138 128.946 main 587 565 __________P___ -1 16.9138 128.946 4 18 306
1932242N16130 1932 44 WP MM NOT_NAMED 1932-08-29 03:00:00 NR 17.4309 128.221 main 564 550 __________P___ -1 17.4309 128.221 4 17 308
1932242N16130 1932 44 WP MM NOT_NAMED 1932-08-29 06:00:00 NR 17.9573 127.561 main 552 495 __________P___ -1 17.9573 127.561 4 16 313
1932242N16130 1932 44 WP MM NOT_NAMED 1932-08-29 09:00:00 NR 18.5000 127.000 main 495 456 __________O___ -1 18.5000 127.000 4 15 319
1932242N16130 1932 44 WP MM NOT_NAMED 1932-08-29 12:00:00 NR 19.0602 126.563 main 459 431 __________P___ -1 19.0602 126.563 4 13 327
1932242N16130 1932 44 WP MM NOT_NAMED 1932-08-29 15:00:00 NR 19.6160 126.234 main 431 427 __________P___ -1 19.6160 126.234 4 12 333
1932242N16130 1932 44 WP MM NOT_NAMED 1932-08-29 18:00:00 NR 20.1388 125.988 main 432 428 __________P___ -1 20.1388 125.988 4 11 337
1932242N16130 1932 44 WP MM NOT_NAMED 1932-08-29 21:00:00 NR 20.6000 125.800 main 441 439 __________O___ -1 20.6000 125.800 4 9 338
1932242N16130 1932 44 WP MM NOT_NAMED 1932-08-30 00:00:00 NR 20.9724 125.620 main 451 450 __________P___ -1 20.9724 125.620 4 7 337
1932242N16130 1932 44 WP MM NOT_NAMED 1932-08-30 03:00:00 NR 21.2821 125.489 main 466 448 __________P___ -1 21.2821 125.489 4 6 339
1932242N16130 1932 44 WP MM NOT_NAMED 1932-08-30 06:00:00 NR 21.5507 125.389 main 444 426 __________P___ -1 21.5507 125.389 4 5 341
1932242N16130 1932 44 WP MM NOT_NAMED 1932-08-30 09:00:00 NR 21.8000 125.300 main 426 405 __________O___ -1 21.8000 125.300 4 6 340
1932242N16130 1932 44 WP MM NOT_NAMED 1932-08-30 12:00:00 NR 22.0725 125.189 main 405 389 __________P___ -1 22.0725 125.189 4 6 340
1932242N16130 1932 44 WP MM NOT_NAMED 1932-08-30 15:00:00 NR 22.3300 125.085 main 389 372 __________P___ -1 22.3300 125.085 4 5 340
1932242N16130 1932 44 WP MM NOT_NAMED 1932-08-30 18:00:00 NR 22.5725 124.989 main 372 359 __________P___ -1 22.5725 124.989 4 5 340
1932242N16130 1932 44 WP MM NOT_NAMED 1932-08-30 21:00:00 NR 22.8000 124.900 main 359 339 __________O___ -1 22.8000 124.900 4 5 338
1932242N16130 1932 44 WP MM NOT_NAMED 1932-08-31 00:00:00 NR 23.0062 124.802 main 339 319 __________P___ -1 23.0062 124.802 4 4 337
1932242N16130 1932 44 WP MM NOT_NAMED 1932-08-31 03:00:00 NR 23.2000 124.713 main 319 300 __________P___ -1 23.2000 124.713 4 4 339
1932242N16130 1932 44 WP MM NOT_NAMED 1932-08-31 06:00:00 NR 23.3937 124.642 main 300 291 __________P___ -1 23.3937 124.642 4 4 346
1932242N16130 1932 44 WP MM NOT_NAMED 1932-08-31 09:00:00 NR 23.6000 124.600 main 291 284 __________O___ -1 23.6000 124.600 4 4 350
1932242N16130 1932 44 WP MM NOT_NAMED 1932-08-31 12:00:00 NR 23.8151 124.560 main 284 279 __________P___ -1 23.8151 124.560 4 5 354
1932242N16130 1932 44 WP MM NOT_NAMED 1932-08-31 15:00:00 NR 24.0472 124.553 main 279 273 __________P___ -1 24.0472 124.553 4 5 5
1932242N16130 1932 44 WP MM NOT_NAMED 1932-08-31 18:00:00 NR 24.3057 124.595 main 273 268 __________P___ -1 24.3057 124.595 4 6 13
1932242N16130 1932 44 WP MM NOT_NAMED 1932-08-31 21:00:00 NR 24.6000 124.700 main 275 274 __________O___ -1 24.6000 124.700 4 7 24
1932242N16130 1932 44 WP MM NOT_NAMED 1932-09-01 00:00:00 NR 24.9355 124.913 main 292 292 __________P___ -1 24.9355 124.913 4 8 32
1932242N16130 1932 44 WP MM NOT_NAMED 1932-09-01 03:00:00 NR 25.3057 125.183 main 323 323 __________P___ -1 25.3057 125.183 4 9 33
1932242N16130 1932 44 WP MM NOT_NAMED 1932-09-01 06:00:00 NR 25.6980 125.463 main 360 360 __________P___ -1 25.6980 125.463 4 9 30
1932242N16130 1932 44 WP MM NOT_NAMED 1932-09-01 09:00:00 NR 26.1000 125.700 main 390 390 __________O___ -1 26.1000 125.700 4 8 24
1932242N16130 1932 44 WP MM NOT_NAMED 1932-09-01 12:00:00 NR 26.4723 125.838 main 415 415 __________P___ -1 26.4723 125.838 4 8 15
1932242N16130 1932 44 WP MM NOT_NAMED 1932-09-01 15:00:00 NR 26.8547 125.926 main 443 443 __________P___ -1 26.8547 125.926 4 8 9
1932242N16130 1932 44 WP MM NOT_NAMED 1932-09-01 18:00:00 NR 27.2599 125.975 main 445 424 __________P___ -1 27.2599 125.975 4 9 4
1932242N16130 1932 44 WP MM NOT_NAMED 1932-09-01 21:00:00 NR 27.7000 126.000 main 424 408 __________O___ -1 27.7000 126.000 4 9 4
1932242N16130 1932 44 WP MM NOT_NAMED 1932-09-02 00:00:00 NR 28.1688 126.038 main 405 396 __________P___ -1 28.1688 126.038 4 10 2
1932242N16130 1932 44 WP MM NOT_NAMED 1932-09-02 03:00:00 NR 28.6750 126.052 main 402 387 __________P___ -1 28.6750 126.052 4 11 0
1932242N16130 1932 44 WP MM NOT_NAMED 1932-09-02 06:00:00 NR 29.2188 126.040 main 387 380 __________P___ -1 29.2188 126.040 4 11 359
1932242N16130 1932 44 WP MM NOT_NAMED 1932-09-02 09:00:00 NR 29.8000 126.000 main 380 313 __________O___ -1 29.8000 126.000 4 13 356
1932242N16130 1932 44 WP MM NOT_NAMED 1932-09-02 12:00:00 NR 30.4748 125.953 main 302 237 __________P___ -1 30.4748 125.953 4 14 356
1932242N16130 1932 44 WP MM NOT_NAMED 1932-09-02 15:00:00 NR 31.1747 125.875 main 226 162 __________P___ -1 31.1747 125.875 4 14 353
1932242N16130 1932 44 WP MM NOT_NAMED 1932-09-02 18:00:00 NR 31.8373 125.760 main 162 110 __________P___ -1 31.8373 125.760 4 13 349
1932242N16130 1932 44 WP MM NOT_NAMED 1932-09-02 21:00:00 NR 32.4000 125.600 main 110 100 __________O___ -1 32.4000 125.600 4 10 336
1932242N16130 1932 44 WP MM NOT_NAMED 1932-09-03 00:00:00 NR 32.7265 125.298 main 107 100 __________P___ -1 32.7265 125.298 4 8 316
1932242N16130 1932 44 WP MM NOT_NAMED 1932-09-03 03:00:00 NR 32.9580 124.969 main 116 116 __________P___ -1 32.9580 124.969 4 7 313
1932242N16130 1932 44 WP MM NOT_NAMED 1932-09-03 06:00:00 NR 33.1854 124.705 main 139 139 __________P___ -1 33.1854 124.705 4 6 330
1932242N16130 1932 44 WP MM NOT_NAMED 1932-09-03 09:00:00 NR 33.5000 124.600 main 149 149 __________O___ -1 33.5000 124.600 4 9 2
1932242N16130 1932 44 WP MM NOT_NAMED 1932-09-03 12:00:00 NR 34.0852 124.752 main 148 109 __________P___ -1 34.0852 124.752 4 13 17
1932242N16130 1932 44 WP MM NOT_NAMED 1932-09-03 15:00:00 NR 34.7576 125.075 main 105 71 __________P___ -1 34.7576 125.075 4 15 25
1932242N16130 1932 44 WP MM NOT_NAMED 1932-09-03 18:00:00 NR 35.4261 125.511 main 71 46 __________P___ -1 35.4261 125.511 4 15 31
1932242N16130 1932 44 WP MM NOT_NAMED 1932-09-03 21:00:00 NR 36.0000 126.000 main 46 11 __________O___ -1 36.0000 126.000 4 11 36
1932242N16130 1932 44 WP MM NOT_NAMED 1932-09-04 00:00:00 NR 36.2820 126.294 main 11 0 __________P___ -1 36.2820 126.294 4 7 48
1932242N16130 1932 44 WP MM NOT_NAMED 1932-09-04 03:00:00 NR 36.4735 126.642 main 0 0 __________P___ -1 36.4735 126.642 4 8 60
1932242N16130 1932 44 WP MM NOT_NAMED 1932-09-04 06:00:00 NR 36.6787 127.143 main 0 0 __________P___ -1 36.6787 127.143 4 11 62
1932242N16130 1932 44 WP MM NOT_NAMED 1932-09-04 09:00:00 NR 37.0000 127.900 main 0 0 __________O___ -1 37.0000 127.900 4 19 58
1932242N16130 1932 44 WP MM NOT_NAMED 1932-09-04 12:00:00 NR 37.6631 129.120 main 0 0 __________P___ -1 37.6631 129.120 4 26 56
1932242N16130 1932 44 WP MM NOT_NAMED 1932-09-04 15:00:00 NR 38.4216 130.612 main 152 152 __________P___ -1 38.4216 130.612 4 28 59
1932242N16130 1932 44 WP MM NOT_NAMED 1932-09-04 18:00:00 NR 39.1420 132.202 main 284 283 __________P___ -1 39.1420 132.202 4 27 62
1932242N16130 1932 44 WP MM NOT_NAMED 1932-09-04 21:00:00 NR 39.7000 133.700 main 338 325 __________O___ -1 39.7000 133.700 4 21 67
1932242N16130 1932 44 WP MM NOT_NAMED 1932-09-05 00:00:00 NR 39.9349 134.684 main 332 310 __________P___ -1 39.9349 134.684 4 14 77
1932242N16130 1932 44 WP MM NOT_NAMED 1932-09-05 03:00:00 NR 40.0148 135.545 main 310 280 __________P___ -1 40.0148 135.545 4 14 87
1932242N16130 1932 44 WP MM NOT_NAMED 1932-09-05 06:00:00 NR 40.0138 136.457 main 272 187 __________P___ -1 40.0138 136.457 4 16 91
1932242N16130 1932 44 WP MM NOT_NAMED 1932-09-05 09:00:00 NR 40.0000 137.600 main 178 35 __________O___ -1 40.0000 137.600 4 23 90
1932242N16130 1932 44 WP MM NOT_NAMED 1932-09-05 12:00:00 NR 40.0098 139.437 main 27 0 __________P___ -1 40.0098 139.437 4 30 90
1932242N16130 1932 44 WP MM NOT_NAMED 1932-09-05 15:00:00 NR 39.9993 141.487 main 0 0 __________P___ -1 39.9993 141.487 4 31 90
1932242N16130 1932 44 WP MM NOT_NAMED 1932-09-05 18:00:00 NR 40.0095 143.467 main 129 129 __________P___ -1 40.0095 143.467 4 28 88
1932242N16130 1932 44 WP MM NOT_NAMED 1932-09-05 21:00:00 NR 40.1000 145.100 main 255 255 __________O___ -1 40.1000 145.100 4 18 81
1932242N16130 1932 44 WP MM NOT_NAMED 1932-09-06 00:00:00 NR 40.2760 145.788 main 280 277 __________P___ -1 40.2760 145.788 4 9 59
1932242N16130 1932 44 WP MM NOT_NAMED 1932-09-06 03:00:00 NR 40.5781 146.149 main 277 253 __________P___ -1 40.5781 146.149 4 9 37
1932242N16130 1932 44 WP MM NOT_NAMED 1932-09-06 06:00:00 NR 41.0174 146.533 main 253 225 __________P___ -1 41.0174 146.533 4 13 40
1932242N16130 1932 44 WP MM NOT_NAMED 1932-09-06 09:00:00 NR 41.6000 147.300 main 230 227 __________O___ -1 41.6000 147.300 4 21 52
1932242N16130 1932 44 WP MM NOT_NAMED 1932-09-06 12:00:00 NR 42.3142 148.735 main 275 274 __________P___ -1 42.3142 148.735 4 30 60
1932242N16130 1932 44 WP MM NOT_NAMED 1932-09-06 15:00:00 NR 43.1080 150.776 main 291 283 __________P___ -1 43.1080 150.776 4 37 64
1932242N16130 1932 44 WP MM NOT_NAMED 1932-09-06 18:00:00 NR 43.9207 153.258 main 331 329 __________P___ -1 43.9207 153.258 4 41 67
1932242N16130 1932 44 WP MM NOT_NAMED 1932-09-06 21:00:00 NR 44.7000 156.000 main 462 __________O___ -1 44.7000 156.000 4 42 68

Digital Typhoon Data and Search

About IBTrACS Database

This database is a web-friendly format of International Best Track Archive for Climate Stewardship (IBTrACS), a global best track data archive curated by NOAA dating back to 1842.

Updated: 2021-10-08